Time;durP1;ratioP1;P1;durP2;ratioP2;P2;SDS_P1;SDS_P2;PMS_P1;PMS_P2;Temp;Humidity;BMP_temperature;BMP_pressure;BME280_temperature;BME280_humidity;BME280_pressure;Samples;Min_cycle;Max_cycle;Signal;HPM_P1;HPM_P2
2021/12/11 00:01:01;;;;;;;2.13;1.23;;;;;;;2.85;100.00;96725.19;5075843;28;20489;-72
2021/12/11 00:03:36;;;;;;;1.50;1.33;;;;;;;2.84;100.00;96720.16;5076025;28;20193;-72
2021/12/11 00:06:25;;;;;;;1.47;1.20;;;;;;;2.84;100.00;96733.28;5076204;28;20185;-72
2021/12/11 00:08:57;;;;;;;1.53;1.30;;;;;;;2.83;100.00;96731.66;5075043;28;20185;-72
2021/12/11 00:11:29;;;;;;;2.83;1.47;;;;;;;2.82;100.00;96738.75;5074008;28;20308;-72
2021/12/11 00:13:59;;;;;;;2.87;1.60;;;;;;;2.84;100.00;96749.03;5073958;28;20527;-72
2021/12/11 00:16:28;;;;;;;1.37;1.27;;;;;;;2.85;100.00;96756.69;5077612;28;20642;-72
2021/12/11 00:19:01;;;;;;;2.07;1.20;;;;;;;2.89;100.00;96763.16;5077735;28;20620;-72
2021/12/11 00:21:28;;;;;;;2.00;1.20;;;;;;;2.91;100.00;96774.25;5077978;28;20189;-72
2021/12/11 00:24:09;;;;;;;1.80;1.20;;;;;;;2.98;99.03;96779.50;5078347;28;20216;-72
2021/12/11 00:26:45;;;;;;;2.30;1.10;;;;;;;3.08;99.15;96783.31;5079866;28;20193;-72
2021/12/11 00:29:13;;;;;;;1.40;1.27;;;;;;;3.09;99.14;96794.66;5079752;28;20188;-72
2021/12/11 00:31:47;;;;;;;1.67;1.10;;;;;;;3.08;99.85;96801.69;5079820;28;20211;-73
2021/12/11 00:34:17;;;;;;;2.47;1.07;;;;;;;3.12;98.35;96799.50;5079156;28;20662;-72
2021/12/11 00:36:55;;;;;;;3.40;1.47;;;;;;;2.64;99.83;96808.53;5079410;28;20189;-73
2021/12/11 00:39:23;;;;;;;1.70;1.60;;;;;;;2.34;100.00;96815.16;5080377;28;20193;-73
2021/12/11 00:41:54;;;;;;;2.27;1.50;;;;;;;2.10;100.00;96829.59;5079580;28;20220;-73
2021/12/11 00:44:32;;;;;;;4.67;1.90;;;;;;;2.05;100.00;96829.38;5079386;28;20260;-73
2021/12/11 00:47:32;;;;;;;3.60;1.80;;;;;;;2.06;100.00;96835.41;5079356;28;20193;-73
2021/12/11 00:50:02;;;;;;;2.97;2.00;;;;;;;2.04;100.00;96833.00;5067417;28;20207;-73
2021/12/11 00:52:32;;;;;;;3.00;2.13;;;;;;;2.09;100.00;96841.09;5079365;28;20197;-73
2021/12/11 00:55:00;;;;;;;3.43;1.87;;;;;;;2.02;100.00;96848.09;5079178;28;20251;-73
2021/12/11 00:57:26;;;;;;;3.27;2.23;;;;;;;2.04;100.00;96853.97;5078999;28;20200;-73
2021/12/11 01:00:11;;;;;;;2.47;2.27;;;;;;;2.07;100.00;96855.38;5079267;28;20189;-73
2021/12/11 01:02:38;;;;;;;3.17;2.10;;;;;;;2.10;100.00;96866.28;5079191;28;20192;-73
2021/12/11 01:05:07;;;;;;;2.90;1.93;;;;;;;2.05;100.00;96862.63;5078801;28;20216;-73
2021/12/11 01:07:35;;;;;;;2.27;1.60;;;;;;;1.93;100.00;96872.03;5079677;28;20189;-73
2021/12/11 01:10:25;;;;;;;1.87;1.70;;;;;;;1.96;100.00;96869.84;5078762;28;20193;-73
2021/12/11 01:13:02;;;;;;;1.87;1.77;;;;;;;1.95;100.00;96878.72;5078522;28;20509;-73
2021/12/11 01:15:44;;;;;;;1.83;1.70;;;;;;;1.94;100.00;96881.53;5078460;28;20642;-73
2021/12/11 01:18:23;;;;;;;1.97;1.50;;;;;;;1.94;100.00;96892.81;5078891;28;20193;-73
2021/12/11 01:20:59;;;;;;;2.43;1.80;;;;;;;1.97;100.00;96902.09;5078922;28;20244;-73
2021/12/11 01:23:45;;;;;;;2.73;1.50;;;;;;;1.99;100.00;96905.34;5078484;28;20590;-73
2021/12/11 01:26:16;;;;;;;1.40;1.30;;;;;;;1.91;100.00;96908.13;5077480;28;20221;-73
2021/12/11 01:28:43;;;;;;;1.53;1.10;;;;;;;1.93;100.00;96909.53;5078811;28;20189;-73
2021/12/11 01:31:14;;;;;;;1.67;1.13;;;;;;;1.88;100.00;96925.03;5078439;28;20197;-73
2021/12/11 01:33:41;;;;;;;1.23;1.13;;;;;;;1.91;100.00;96921.22;5078304;28;20651;-73
2021/12/11 01:36:09;;;;;;;1.13;1.07;;;;;;;1.83;100.00;96934.47;5078459;28;20522;-73
2021/12/11 01:38:36;;;;;;;1.40;1.00;;;;;;;1.86;100.00;96955.03;5078113;28;20610;-73
2021/12/11 01:41:16;;;;;;;1.13;0.80;;;;;;;1.85;100.00;96950.81;5078597;28;20204;-72
2021/12/11 01:43:45;;;;;;;1.40;0.80;;;;;;;1.84;100.00;96957.84;5079056;28;20259;-73
2021/12/11 01:46:11;;;;;;;0.90;0.90;;;;;;;1.90;100.00;96962.31;5078396;28;20203;-73
2021/12/11 01:48:44;;;;;;;1.00;0.73;;;;;;;1.88;100.00;96966.94;5078424;28;20189;-73
2021/12/11 01:51:31;;;;;;;1.80;1.00;;;;;;;1.85;100.00;96966.53;5078292;28;20193;-74
2021/12/11 01:54:13;;;;;;;0.60;0.60;;;;;;;1.86;100.00;96971.59;5078203;28;20228;-73
2021/12/11 01:56:42;;;;;;;0.63;0.63;;;;;;;1.85;100.00;96983.03;5078203;28;20289;-72
2021/12/11 01:59:20;;;;;;;0.73;0.73;;;;;;;1.83;100.00;96982.44;5077885;28;20244;-72
2021/12/11 02:02:03;;;;;;;1.10;1.00;;;;;;;1.87;100.00;96990.72;5078175;28;20200;-73
2021/12/11 02:04:33;;;;;;;1.40;1.03;;;;;;;1.89;100.00;96997.38;5078028;28;20227;-72
2021/12/11 02:07:08;;;;;;;1.40;1.03;;;;;;;1.95;100.00;97003.69;5077977;28;20181;-72
2021/12/11 02:09:38;;;;;;;1.00;0.90;;;;;;;1.90;100.00;97013.94;5077672;28;20602;-73
2021/12/11 02:12:15;;;;;;;1.00;1.00;;;;;;;1.88;100.00;97019.38;5077606;28;20208;-72
2021/12/11 02:14:47;;;;;;;0.80;0.80;;;;;;;1.84;100.00;97017.28;5077791;28;20224;-72
2021/12/11 02:17:19;;;;;;;1.53;0.93;;;;;;;1.79;100.00;97024.91;5077520;28;20572;-72
2021/12/11 02:19:49;;;;;;;2.00;1.07;;;;;;;1.76;100.00;97026.09;5077424;28;20580;-72
2021/12/11 02:22:22;;;;;;;0.97;0.90;;;;;;;1.78;100.00;97033.78;5077718;28;20280;-73
2021/12/11 02:24:55;;;;;;;1.17;1.00;;;;;;;1.75;100.00;97032.34;5077978;28;20235;-72
2021/12/11 02:27:29;;;;;;;1.60;1.20;;;;;;;1.69;100.00;97029.66;5078135;28;20185;-72
2021/12/11 02:30:07;;;;;;;1.30;1.20;;;;;;;1.70;100.00;97036.53;5077701;28;20211;-72
2021/12/11 02:32:41;;;;;;;1.03;1.00;;;;;;;1.80;100.00;97047.53;5077573;28;20242;-72
2021/12/11 02:35:37;;;;;;;1.50;1.30;;;;;;;1.77;100.00;97047.88;5077016;28;20224;-72
2021/12/11 02:38:15;;;;;;;1.27;1.10;;;;;;;1.76;100.00;97054.13;5076004;28;20200;-74
2021/12/11 02:40:50;;;;;;;1.20;1.10;;;;;;;1.80;100.00;97064.03;5077079;28;20606;-73
2021/12/11 02:43:24;;;;;;;1.30;1.20;;;;;;;1.86;100.00;97062.47;5077311;28;20227;-73
2021/12/11 02:46:23;;;;;;;1.80;1.70;;;;;;;1.86;100.00;97072.97;5077252;28;20181;-72
2021/12/11 02:48:55;;;;;;;1.60;1.50;;;;;;;1.90;100.00;97077.63;5071933;28;20204;-70
2021/12/11 02:51:34;;;;;;;1.50;1.40;;;;;;;1.90;100.00;97076.81;5077192;28;20188;-70
2021/12/11 02:54:11;;;;;;;1.60;1.50;;;;;;;1.92;100.00;97087.91;5077076;28;20224;-70
2021/12/11 02:56:43;;;;;;;1.50;1.40;;;;;;;1.93;100.00;97086.91;5077017;28;20217;-70
2021/12/11 02:59:15;;;;;;;1.70;1.60;;;;;;;1.92;100.00;97095.78;5076681;28;20497;-70
2021/12/11 03:01:51;;;;;;;1.40;1.30;;;;;;;1.98;100.00;97092.44;5077382;28;20192;-70
2021/12/11 03:04:25;;;;;;;1.60;1.50;;;;;;;1.96;100.00;97100.47;5076824;28;20235;-70
2021/12/11 03:06:54;;;;;;;1.60;1.50;;;;;;;1.94;100.00;97099.84;5076919;28;20216;-70
2021/12/11 03:09:25;;;;;;;1.70;1.60;;;;;;;1.93;100.00;97108.69;5076799;28;20189;-70
2021/12/11 03:11:54;;;;;;;2.13;1.60;;;;;;;1.96;100.00;97115.38;5076368;28;20299;-70
2021/12/11 03:14:23;;;;;;;1.80;1.70;;;;;;;1.99;100.00;97118.41;5076195;28;20227;-70
2021/12/11 03:16:50;;;;;;;1.60;1.50;;;;;;;1.94;100.00;97114.75;5076256;28;20212;-70
2021/12/11 03:19:24;;;;;;;1.53;1.47;;;;;;;1.91;100.00;97123.00;5076661;28;20295;-73
2021/12/11 03:21:52;;;;;;;1.93;1.83;;;;;;;1.97;100.00;97124.84;5076719;28;20184;-73
2021/12/11 03:24:19;;;;;;;2.83;1.80;;;;;;;2.00;100.00;97124.47;5076210;28;20659;-73
2021/12/11 03:26:48;;;;;;;1.90;1.80;;;;;;;2.00;100.00;97127.94;5076576;28;20223;-73
2021/12/11 03:29:15;;;;;;;2.07;1.87;;;;;;;2.01;100.00;97145.28;5076311;28;20584;-74
2021/12/11 03:31:42;;;;;;;2.07;1.80;;;;;;;1.97;100.00;97151.06;5076179;28;20510;-73
2021/12/11 03:34:15;;;;;;;1.60;1.50;;;;;;;1.98;100.00;97156.13;5076333;28;20217;-73
2021/12/11 03:36:41;;;;;;;1.87;1.77;;;;;;;2.07;100.00;97157.63;5076398;28;20312;-73
2021/12/11 03:39:17;;;;;;;1.60;1.50;;;;;;;2.02;100.00;97172.28;5076073;28;20510;-73
2021/12/11 03:41:46;;;;;;;2.00;1.83;;;;;;;1.97;100.00;97174.66;5076382;28;20512;-73
2021/12/11 03:44:14;;;;;;;2.23;1.60;;;;;;;2.02;100.00;97182.75;5076061;28;20228;-73
2021/12/11 03:46:41;;;;;;;1.90;1.60;;;;;;;2.02;100.00;97191.44;5076284;28;20193;-73
2021/12/11 03:49:13;;;;;;;2.07;1.97;;;;;;;2.01;100.00;97192.44;5075534;28;20204;-73
2021/12/11 03:51:42;;;;;;;1.70;1.60;;;;;;;1.99;100.00;97196.25;5076290;28;20197;-73
2021/12/11 03:54:13;;;;;;;2.43;2.20;;;;;;;2.02;100.00;97203.72;5076089;28;20221;-73
2021/12/11 03:56:40;;;;;;;2.33;2.20;;;;;;;2.03;100.00;97208.00;5075907;28;20288;-73
2021/12/11 03:59:10;;;;;;;2.00;1.90;;;;;;;2.03;100.00;97213.25;5076173;28;20201;-73
2021/12/11 04:01:45;;;;;;;2.30;2.17;;;;;;;2.05;100.00;97217.28;5076659;28;20271;-73
2021/12/11 04:04:21;;;;;;;2.30;2.10;;;;;;;2.03;100.00;97221.09;5076046;28;20230;-73
2021/12/11 04:06:49;;;;;;;2.10;2.00;;;;;;;2.03;100.00;97227.13;5076019;28;20189;-73
2021/12/11 04:09:17;;;;;;;2.40;2.20;;;;;;;1.96;100.00;97234.13;5076860;28;20193;-73
2021/12/11 04:11:44;;;;;;;2.50;2.30;;;;;;;1.88;100.00;97233.41;5075554;28;20626;-73
2021/12/11 04:14:20;;;;;;;2.83;2.63;;;;;;;1.92;100.00;97240.75;5076013;28;20246;-73
2021/12/11 04:16:48;;;;;;;2.80;2.60;;;;;;;1.86;100.00;97245.91;5076378;28;20212;-73
2021/12/11 04:19:15;;;;;;;2.67;2.47;;;;;;;1.92;100.00;97256.47;5075844;28;20205;-73
2021/12/11 04:21:44;;;;;;;4.03;3.13;;;;;;;1.95;100.00;97258.72;5075481;28;20607;-73
2021/12/11 04:24:12;;;;;;;3.20;2.90;;;;;;;2.01;100.00;97259.78;5075848;28;20501;-73
2021/12/11 04:26:39;;;;;;;2.80;2.60;;;;;;;2.00;100.00;97271.25;5075922;28;20193;-73
2021/12/11 04:29:06;;;;;;;4.17;3.87;;;;;;;2.01;100.00;97271.09;5075857;28;20189;-73
2021/12/11 04:31:36;;;;;;;4.17;3.87;;;;;;;1.98;100.00;97278.50;5075536;28;20492;-73
2021/12/11 04:34:07;;;;;;;4.60;4.13;;;;;;;2.01;100.00;97280.75;5075623;28;20228;-73
2021/12/11 04:36:38;;;;;;;4.70;4.30;;;;;;;2.00;100.00;97295.69;5075546;28;20213;-73
2021/12/11 04:39:09;;;;;;;4.73;4.33;;;;;;;1.96;100.00;97293.59;5075494;28;20196;-73
2021/12/11 04:41:46;;;;;;;4.87;4.47;;;;;;;1.97;100.00;97295.22;5075460;28;20193;-73
2021/12/11 04:44:21;;;;;;;3.33;3.13;;;;;;;2.01;100.00;97301.72;5075164;28;20639;-73
2021/12/11 04:46:47;;;;;;;4.97;4.57;;;;;;;2.02;100.00;97304.16;5075141;28;20571;-73
2021/12/11 04:49:21;;;;;;;4.97;4.57;;;;;;;2.04;100.00;97309.22;5075424;28;20493;-73
2021/12/11 04:51:58;;;;;;;4.50;4.20;;;;;;;2.05;100.00;97313.47;5075483;28;20193;-73
2021/12/11 04:54:38;;;;;;;5.10;4.70;;;;;;;2.07;100.00;97317.53;5075637;28;20593;-73
2021/12/11 04:57:38;;;;;;;5.43;4.93;;;;;;;2.08;100.00;97324.38;5075954;28;20212;-69
2021/12/11 05:00:08;;;;;;;6.17;5.67;;;;;;;2.05;100.00;97324.78;5075284;28;20290;-70
2021/12/11 05:05:46;;;;;;;4.67;4.37;;;;;;;2.02;100.00;97335.63;5022289;28;20640;-70
2021/12/11 05:08:38;;;;;;;6.83;4.80;;;;;;;2.00;100.00;97336.78;5078786;28;20192;-69
2021/12/11 05:11:03;;;;;;;6.97;6.37;;;;;;;2.02;100.00;97350.50;5078499;28;20282;-70
2021/12/11 05:13:31;;;;;;;6.33;5.80;;;;;;;2.01;100.00;97359.38;5078907;28;20270;-70
2021/12/11 05:16:10;;;;;;;5.13;4.73;;;;;;;2.02;100.00;97364.44;5078922;28;20213;-70
2021/12/11 05:18:39;;;;;;;5.53;5.13;;;;;;;2.01;100.00;97370.69;5078983;28;20189;-70
2021/12/11 05:21:10;;;;;;;7.33;6.73;;;;;;;2.07;100.00;97375.19;5078521;28;20196;-70
2021/12/11 05:23:36;;;;;;;6.30;5.80;;;;;;;2.00;100.00;97381.34;5079366;28;20221;-70
2021/12/11 05:26:04;;;;;;;6.97;6.27;;;;;;;1.97;100.00;97392.19;5078959;28;20181;-70
2021/12/11 05:28:31;;;;;;;6.67;6.13;;;;;;;1.99;100.00;97387.59;5078915;28;20503;-70
2021/12/11 05:30:59;;;;;;;6.57;6.07;;;;;;;1.96;100.00;97394.00;5078842;28;20208;-70
2021/12/11 05:33:25;;;;;;;6.90;6.30;;;;;;;2.03;100.00;97396.72;5078815;28;20193;-70
2021/12/11 05:35:53;;;;;;;7.57;6.97;;;;;;;1.97;100.00;97405.28;5078232;28;20654;-70
2021/12/11 05:38:21;;;;;;;7.07;6.53;;;;;;;1.92;100.00;97412.88;5078073;28;20619;-70
2021/12/11 05:40:53;;;;;;;6.70;6.20;;;;;;;1.93;100.00;97423.19;5079038;28;20220;-70
2021/12/11 05:43:20;;;;;;;8.13;7.43;;;;;;;1.96;100.00;97430.72;5078365;28;20200;-70
2021/12/11 05:45:47;;;;;;;8.13;7.30;;;;;;;1.98;100.00;97433.94;5078380;28;20197;-70
2021/12/11 05:48:15;;;;;;;7.70;7.00;;;;;;;1.97;100.00;97429.72;5078364;28;20201;-70
2021/12/11 05:50:52;;;;;;;8.63;7.83;;;;;;;2.01;100.00;97428.34;5078219;28;20216;-70
2021/12/11 05:53:20;;;;;;;9.03;8.13;;;;;;;2.00;100.00;97439.03;5077792;28;20200;-70
2021/12/11 05:55:48;;;;;;;9.00;8.20;;;;;;;1.99;100.00;97445.25;5077889;28;20201;-70
2021/12/11 05:58:24;;;;;;;7.80;7.10;;;;;;;1.95;100.00;97450.06;5078773;28;20209;-70
2021/12/11 06:00:52;;;;;;;7.67;7.07;;;;;;;2.00;100.00;97457.38;5078251;28;20532;-70
2021/12/11 06:03:20;;;;;;;8.50;7.80;;;;;;;1.98;100.00;97462.78;5078130;28;20197;-70
2021/12/11 06:05:47;;;;;;;9.00;8.23;;;;;;;2.01;100.00;97470.31;5078258;28;20197;-70
2021/12/11 06:08:13;;;;;;;7.80;7.20;;;;;;;2.01;100.00;97480.78;5078445;28;20204;-70
2021/12/11 06:10:42;;;;;;;8.43;7.73;;;;;;;2.03;100.00;97480.63;5077620;28;20224;-70
2021/12/11 06:13:10;;;;;;;10.10;9.20;;;;;;;2.00;100.00;97492.28;5077462;28;20236;-70
2021/12/11 06:15:37;;;;;;;9.77;8.77;;;;;;;2.02;100.00;97492.06;5078367;28;20221;-70
2021/12/11 06:18:04;;;;;;;8.90;8.20;;;;;;;2.03;100.00;97499.75;5077581;28;20305;-69
2021/12/11 06:20:32;;;;;;;10.73;8.27;;;;;;;2.02;100.00;97499.94;5077665;28;20550;-70
2021/12/11 06:22:58;;;;;;;9.17;8.27;;;;;;;2.08;100.00;97512.34;5077445;28;20649;-69
2021/12/11 06:25:32;;;;;;;8.93;8.13;;;;;;;2.11;100.00;97509.34;5078037;28;20220;-70
2021/12/11 06:27:58;;;;;;;8.07;7.37;;;;;;;2.05;100.00;97512.69;5077348;28;20631;-70
2021/12/11 06:30:26;;;;;;;8.93;8.23;;;;;;;2.08;100.00;97528.06;5077564;28;20200;-70
2021/12/11 06:32:54;;;;;;;9.40;8.50;;;;;;;2.09;100.00;97534.94;5077434;28;20295;-69
2021/12/11 06:35:35;;;;;;;8.57;7.87;;;;;;;2.10;100.00;97532.13;5077319;28;20223;-69
2021/12/11 06:38:02;;;;;;;8.57;7.77;;;;;;;2.11;100.00;97540.81;5076791;28;20623;-70
2021/12/11 06:40:29;;;;;;;10.20;9.40;;;;;;;2.13;100.00;97549.31;5077198;28;20284;-69
2021/12/11 06:42:57;;;;;;;10.33;9.33;;;;;;;2.15;100.00;97550.78;5077178;28;20203;-70
2021/12/11 06:45:25;;;;;;;11.30;10.20;;;;;;;2.12;100.00;97560.81;5076857;28;20225;-70
2021/12/11 06:47:51;;;;;;;11.20;10.20;;;;;;;2.14;100.00;97559.63;5077177;28;20197;-70
2021/12/11 06:50:19;;;;;;;7.83;6.90;;;;;;;2.11;100.00;97559.97;5077138;28;20193;-69
2021/12/11 06:52:47;;;;;;;8.47;6.70;;;;;;;2.10;100.00;97568.03;5077057;28;20201;-70
2021/12/11 06:55:15;;;;;;;9.40;8.60;;;;;;;2.12;100.00;97576.53;5077399;28;20220;-73
2021/12/11 06:57:41;;;;;;;8.80;7.90;;;;;;;2.05;100.00;97580.84;5076720;28;20227;-72
2021/12/11 07:00:09;;;;;;;9.60;8.67;;;;;;;2.11;100.00;97590.63;5076589;28;20576;-72
2021/12/11 07:02:35;;;;;;;11.40;9.87;;;;;;;2.10;100.00;97600.31;5076875;28;20193;-72
2021/12/11 07:05:02;;;;;;;9.73;8.73;;;;;;;2.11;100.00;97606.34;5076734;28;20224;-73
2021/12/11 07:07:33;;;;;;;8.50;7.80;;;;;;;2.16;100.00;97607.44;5076499;28;20188;-73
2021/12/11 07:10:00;;;;;;;10.43;9.43;;;;;;;2.11;100.00;97616.84;5076478;28;20189;-72
2021/12/11 07:12:27;;;;;;;10.17;9.27;;;;;;;2.09;100.00;97627.53;5076473;28;20208;-72
2021/12/11 07:14:54;;;;;;;11.27;10.27;;;;;;;2.12;100.00;97637.63;5076570;28;20524;-73
2021/12/11 07:17:22;;;;;;;11.07;10.07;;;;;;;2.13;100.00;97644.53;5076280;28;20232;-73
2021/12/11 07:19:48;;;;;;;8.33;7.60;;;;;;;2.10;100.00;97650.13;5076648;28;20201;-73
2021/12/11 07:22:16;;;;;;;11.20;10.13;;;;;;;2.10;100.00;97657.16;5076556;28;20224;-72
2021/12/11 07:24:48;;;;;;;9.80;8.73;;;;;;;2.09;100.00;97658.16;5075968;28;20647;-72
2021/12/11 07:27:16;;;;;;;10.53;9.37;;;;;;;2.17;100.00;97663.34;5076343;28;20185;-72
2021/12/11 07:29:42;;;;;;;9.47;8.67;;;;;;;2.12;100.00;97671.72;5076488;28;20220;-73
2021/12/11 07:32:09;;;;;;;9.87;8.87;;;;;;;2.18;100.00;97676.28;5076023;28;20200;-72
2021/12/11 07:34:36;;;;;;;11.40;10.20;;;;;;;2.22;100.00;97684.59;5076280;28;20220;-73
2021/12/11 07:37:04;;;;;;;12.37;11.17;;;;;;;2.17;100.00;97693.00;5075877;28;20631;-72
2021/12/11 07:39:30;;;;;;;9.33;8.33;;;;;;;2.19;100.00;97698.88;5076054;28;20204;-72
2021/12/11 07:41:58;;;;;;;9.73;8.80;;;;;;;2.24;100.00;97695.72;5076102;28;20211;-72
2021/12/11 07:44:27;;;;;;;10.73;9.77;;;;;;;2.26;100.00;97702.44;5076176;28;20230;-73
2021/12/11 07:46:54;;;;;;;10.00;9.00;;;;;;;2.22;100.00;97710.84;5075957;28;20196;-73
2021/12/11 07:49:21;;;;;;;10.63;9.47;;;;;;;2.22;100.00;97718.69;5076242;28;20212;-72
2021/12/11 07:51:50;;;;;;;11.20;9.97;;;;;;;2.25;100.00;97734.09;5076234;28;20204;-72
2021/12/11 07:54:18;;;;;;;12.87;11.30;;;;;;;2.26;100.00;97730.47;5075918;28;20270;-72
2021/12/11 07:56:44;;;;;;;13.10;11.53;;;;;;;2.19;100.00;97745.25;5076078;28;20213;-72
2021/12/11 07:59:12;;;;;;;13.10;11.70;;;;;;;2.20;100.00;97754.75;5076159;28;20192;-72
2021/12/11 08:01:50;;;;;;;13.70;12.07;;;;;;;2.21;100.00;97749.34;5076116;28;20279;-72
2021/12/11 08:04:18;;;;;;;13.70;12.30;;;;;;;2.19;100.00;97767.06;5075925;28;20530;-72
2021/12/11 08:06:44;;;;;;;13.60;12.30;;;;;;;2.27;100.00;97768.81;5075700;28;20208;-72
2021/12/11 08:09:15;;;;;;;14.30;11.67;;;;;;;2.26;100.00;97778.47;5075536;28;20189;-72
2021/12/11 08:11:43;;;;;;;14.17;12.03;;;;;;;2.25;100.00;97783.91;5075611;28;20224;-72
2021/12/11 08:14:11;;;;;;;11.77;10.17;;;;;;;2.21;99.90;97793.13;5075566;28;20650;-73
2021/12/11 08:16:46;;;;;;;12.97;11.67;;;;;;;2.20;100.00;97794.09;5075985;28;20212;-72
2021/12/11 08:19:15;;;;;;;12.43;11.13;;;;;;;2.27;99.59;97805.53;5075912;28;20284;-72
2021/12/11 08:21:42;;;;;;;16.27;13.27;;;;;;;2.30;100.00;97800.75;5075506;28;20205;-72
2021/12/11 08:24:09;;;;;;;15.50;13.67;;;;;;;2.34;100.00;97806.50;5075769;28;20247;-73
2021/12/11 08:26:39;;;;;;;15.93;14.33;;;;;;;2.31;100.00;97812.06;5075561;28;20193;-72
2021/12/11 08:29:08;;;;;;;16.87;14.77;;;;;;;2.30;100.00;97821.72;5075382;28;20235;-72
2021/12/11 08:31:34;;;;;;;19.87;15.80;;;;;;;2.27;100.00;97819.47;5075646;28;20192;-73
2021/12/11 08:34:01;;;;;;;15.20;13.60;;;;;;;2.23;100.00;97830.47;5075658;28;20225;-72
2021/12/11 08:36:27;;;;;;;15.07;12.43;;;;;;;2.29;100.00;97824.53;5077906;28;20192;-72
2021/12/11 08:38:54;;;;;;;15.43;13.83;;;;;;;2.33;100.00;97836.31;5079339;28;20201;-73
2021/12/11 08:41:24;;;;;;;16.27;14.57;;;;;;;2.30;100.00;97834.06;5079358;28;20201;-72
2021/12/11 08:43:58;;;;;;;16.60;14.90;;;;;;;2.37;100.00;97838.44;5079086;28;20307;-73
2021/12/11 08:46:27;;;;;;;17.53;15.63;;;;;;;2.35;100.00;97839.59;5079331;28;20220;-72
2021/12/11 08:48:55;;;;;;;15.37;13.83;;;;;;;2.30;100.00;97852.41;5079025;28;20494;-72
2021/12/11 08:51:34;;;;;;;16.23;14.53;;;;;;;2.35;100.00;97855.31;5079185;28;20200;-73
2021/12/11 08:54:02;;;;;;;16.73;14.43;;;;;;;2.36;100.00;97856.97;5079246;28;20311;-73
2021/12/11 08:56:28;;;;;;;15.63;13.53;;;;;;;2.38;100.00;97871.53;5079147;28;20224;-72
2021/12/11 08:58:55;;;;;;;15.23;13.67;;;;;;;2.34;100.00;97870.25;5078753;28;20215;-73
2021/12/11 09:01:28;;;;;;;15.60;13.87;;;;;;;2.44;100.00;97883.94;5078718;28;20189;-73
2021/12/11 09:04:01;;;;;;;16.17;13.17;;;;;;;2.40;100.00;97884.47;5078951;28;20523;-73
2021/12/11 09:06:32;;;;;;;14.53;12.73;;;;;;;2.46;99.13;97882.00;5079468;28;20579;-73
2021/12/11 09:09:10;;;;;;;15.20;12.33;;;;;;;2.52;99.04;97890.97;5078567;28;20580;-72
2021/12/11 09:11:36;;;;;;;15.40;13.10;;;;;;;2.53;99.68;97892.63;5078453;28;20208;-73
2021/12/11 09:14:12;;;;;;;12.50;11.30;;;;;;;2.53;98.00;97898.66;5078309;28;20224;-73
2021/12/11 09:17:00;;;;;;;13.73;12.13;;;;;;;2.55;98.74;97901.94;5078696;28;20224;-72
2021/12/11 09:19:42;;;;;;;15.73;13.27;;;;;;;2.61;99.86;97896.00;5078258;28;20584;-73
2021/12/11 09:22:20;;;;;;;13.13;11.73;;;;;;;2.64;97.99;97906.16;5078487;28;20278;-73
2021/12/11 09:24:54;;;;;;;12.50;11.20;;;;;;;2.67;97.51;97908.41;5078554;28;20221;-73
2021/12/11 09:27:44;;;;;;;11.10;9.93;;;;;;;2.78;97.00;97917.72;5078368;28;20195;-72
2021/12/11 09:30:19;;;;;;;12.23;10.90;;;;;;;2.70;97.00;97923.81;5078358;28;20197;-73
2021/12/11 09:32:52;;;;;;;13.33;11.80;;;;;;;2.81;97.06;97928.69;5078220;28;20619;-73
2021/12/11 09:35:24;;;;;;;11.70;10.53;;;;;;;2.86;96.52;97922.91;5078461;28;20283;-73
2021/12/11 09:37:56;;;;;;;10.97;9.90;;;;;;;2.80;97.42;97928.88;5078366;28;20216;-73
2021/12/11 09:40:25;;;;;;;10.63;9.53;;;;;;;2.94;96.00;97934.16;5077907;28;20191;-72
2021/12/11 09:42:52;;;;;;;11.07;10.03;;;;;;;2.97;96.95;97940.88;5078026;28;20215;-72
2021/12/11 09:45:25;;;;;;;10.00;9.03;;;;;;;2.99;96.74;97936.28;5078006;28;20667;-72
2021/12/11 09:48:00;;;;;;;10.03;9.03;;;;;;;3.08;94.75;97943.13;5077110;28;20569;-72
2021/12/11 09:50:32;;;;;;;9.43;8.43;;;;;;;3.03;95.25;97948.88;5078314;28;20185;-72
2021/12/11 09:52:59;;;;;;;10.43;9.07;;;;;;;3.19;96.99;97950.56;5078252;28;20199;-73
2021/12/11 09:55:36;;;;;;;9.40;8.10;;;;;;;3.22;93.63;97964.19;5077748;28;20515;-73
2021/12/11 09:58:07;;;;;;;8.90;8.00;;;;;;;3.20;93.44;97962.75;5078736;28;20240;-72
2021/12/11 10:00:57;;;;;;;8.03;7.33;;;;;;;3.21;92.71;97961.75;5077821;28;20199;-72
2021/12/11 10:03:29;;;;;;;8.77;7.77;;;;;;;3.28;94.10;97965.28;5077944;28;20199;-73
2021/12/11 10:06:07;;;;;;;6.93;6.27;;;;;;;3.19;91.93;97966.34;5077687;28;20602;-73
2021/12/11 10:08:39;;;;;;;10.30;8.13;;;;;;;3.24;93.99;97977.13;5077947;28;20272;-72
2021/12/11 10:11:08;;;;;;;7.90;7.10;;;;;;;3.27;92.53;97982.88;5077308;28;20216;-73
2021/12/11 10:13:38;;;;;;;7.73;6.70;;;;;;;3.26;93.23;97985.69;5077548;28;20509;-72
2021/12/11 10:16:06;;;;;;;7.93;7.20;;;;;;;3.26;92.62;97983.06;5078573;28;20189;-72
2021/12/11 10:18:32;;;;;;;10.17;7.43;;;;;;;3.40;93.61;97991.00;5077710;28;20213;-72
2021/12/11 10:21:13;;;;;;;7.80;6.93;;;;;;;3.26;90.01;97996.97;5077748;28;20480;-72
2021/12/11 10:23:44;;;;;;;7.30;6.60;;;;;;;3.29;90.58;97985.34;5077053;28;20521;-72
2021/12/11 10:26:12;;;;;;;9.50;6.87;;;;;;;3.36;93.13;97994.97;5077605;28;20200;-72
2021/12/11 10:28:42;;;;;;;7.70;5.93;;;;;;;3.21;89.51;97990.63;5077045;28;20189;-71
2021/12/11 10:31:18;;;;;;;7.03;6.33;;;;;;;3.29;89.79;97993.22;5077412;28;20193;-73
2021/12/11 10:33:45;;;;;;;7.33;6.30;;;;;;;3.26;91.05;97998.81;5077202;28;20231;-72
2021/12/11 10:36:16;;;;;;;6.67;6.07;;;;;;;3.36;91.31;97994.13;5076748;28;20579;-72
2021/12/11 10:38:45;;;;;;;6.23;5.70;;;;;;;3.46;89.25;98003.44;5076973;28;20212;-72
2021/12/11 10:41:13;;;;;;;7.03;6.33;;;;;;;3.48;89.29;98004.06;5076809;28;20280;-72
2021/12/11 10:43:53;;;;;;;8.40;5.80;;;;;;;3.54;89.20;98008.63;5076914;28;20630;-72
2021/12/11 10:46:22;;;;;;;7.40;6.00;;;;;;;3.45;88.48;98009.69;5076793;28;20193;-72
2021/12/11 10:48:49;;;;;;;6.73;6.03;;;;;;;3.52;89.58;98022.94;5076456;28;20181;-73
2021/12/11 10:51:33;;;;;;;5.83;5.23;;;;;;;3.47;88.26;98022.63;5077326;28;20188;-72
2021/12/11 10:54:00;;;;;;;6.60;5.43;;;;;;;3.46;88.09;98024.44;5077034;28;20225;-72
2021/12/11 10:56:28;;;;;;;6.47;5.87;;;;;;;3.46;89.11;98026.25;5076855;28;20189;-73
2021/12/11 10:59:00;;;;;;;6.00;5.40;;;;;;;3.56;88.63;98032.91;5076133;28;20220;-73
2021/12/11 11:01:56;;;;;;;6.40;5.30;;;;;;;3.48;85.97;98027.69;5076621;28;20192;-72
2021/12/11 11:04:27;;;;;;;6.37;5.50;;;;;;;3.42;86.46;98030.22;5075485;28;20224;-72
2021/12/11 11:06:54;;;;;;;5.83;5.23;;;;;;;3.41;86.24;98033.84;5076647;28;20521;-72
2021/12/11 11:09:21;;;;;;;6.40;5.80;;;;;;;3.57;87.41;98042.41;5076480;28;20213;-73
2021/12/11 11:11:51;;;;;;;7.37;6.27;;;;;;;3.61;87.79;98040.28;5076246;28;20530;-72
2021/12/11 11:14:19;;;;;;;7.97;5.93;;;;;;;3.64;88.81;98048.63;5076272;28;20227;-72
2021/12/11 11:16:51;;;;;;;8.37;6.30;;;;;;;3.65;89.32;98044.16;5076449;28;20203;-72
2021/12/11 11:19:20;;;;;;;6.70;6.07;;;;;;;3.66;88.28;98048.47;5075795;28;20212;-72
2021/12/11 11:21:50;;;;;;;7.00;6.13;;;;;;;3.68;87.09;98049.09;5076446;28;20266;-72
2021/12/11 11:24:17;;;;;;;7.03;6.27;;;;;;;3.71;88.43;98048.75;5076242;28;20220;-72
2021/12/11 11:26:46;;;;;;;6.20;5.60;;;;;;;3.70;86.25;98057.63;5076252;28;20191;-72
2021/12/11 11:29:19;;;;;;;5.70;5.20;;;;;;;3.75;85.72;98068.44;5076231;28;20512;-73
2021/12/11 11:31:48;;;;;;;7.13;5.77;;;;;;;3.74;86.77;98066.78;5075838;28;20493;-72
2021/12/11 11:34:20;;;;;;;5.93;5.40;;;;;;;3.87;86.88;98067.00;5075625;28;20228;-73
2021/12/11 11:36:48;;;;;;;6.37;5.70;;;;;;;3.73;86.55;98073.03;5076039;28;20192;-73
2021/12/11 11:39:18;;;;;;;6.60;5.90;;;;;;;3.84;86.80;98077.91;5076000;28;20220;-73
2021/12/11 11:41:52;;;;;;;5.93;5.40;;;;;;;3.59;85.00;98068.53;5076199;28;20188;-72
2021/12/11 11:44:21;;;;;;;5.87;5.27;;;;;;;3.64;84.86;98081.97;5076010;28;20231;-72
2021/12/11 11:46:49;;;;;;;6.30;5.57;;;;;;;3.68;85.72;98088.53;5076066;28;20200;-72
2021/12/11 11:49:18;;;;;;;5.57;5.07;;;;;;;3.70;84.46;98097.06;5076076;28;20203;-72
2021/12/11 11:51:49;;;;;;;6.10;5.50;;;;;;;3.65;85.04;98100.19;5076128;28;20209;-72
2021/12/11 11:54:17;;;;;;;5.47;4.97;;;;;;;3.66;84.22;98111.56;5076513;28;20221;-73